Time;durP1;ratioP1;P1;durP2;ratioP2;P2;SDS_P1;SDS_P2;PMS_P1;PMS_P2;Temp;Humidity;BMP_temperature;BMP_pressure;BME280_temperature;BME280_humidity;BME280_pressure;Samples;Min_cycle;Max_cycle;Signal;HPM_P1;HPM_P2
2021/09/22 00:00:00;;;;;;;3.70;3.50;;;16.10;56.20;;;;;;5050647;28;20035;-84
2021/09/22 00:02:27;;;;;;;3.63;3.42;;;16.10;56.20;;;;;;5052257;27;20021;-85
2021/09/22 00:04:53;;;;;;;3.10;3.00;;;16.00;56.30;;;;;;5050021;28;20037;-84
2021/09/22 00:07:19;;;;;;;3.60;3.40;;;16.00;56.30;;;;;;5049178;28;20025;-84
2021/09/22 00:09:45;;;;;;;3.35;3.22;;;16.00;56.40;;;;;;5050443;28;20395;-84
2021/09/22 00:12:11;;;;;;;3.85;3.65;;;16.00;56.40;;;;;;5050342;28;20498;-83
2021/09/22 00:14:37;;;;;;;3.42;3.22;;;15.90;56.40;;;;;;5052485;28;20052;-84
2021/09/22 00:17:03;;;;;;;3.25;3.15;;;15.90;56.60;;;;;;5048643;28;20029;-84
2021/09/22 00:19:29;;;;;;;4.05;3.75;;;15.80;56.60;;;;;;5049958;28;20044;-84
2021/09/22 00:21:55;;;;;;;3.67;3.47;;;15.80;56.70;;;;;;5048990;28;20391;-84
2021/09/22 00:24:21;;;;;;;3.35;3.17;;;15.70;56.80;;;;;;5050351;28;20096;-84
2021/09/22 00:26:47;;;;;;;3.30;3.10;;;15.70;56.90;;;;;;5052113;28;20060;-85
2021/09/22 00:29:14;;;;;;;3.28;3.10;;;15.60;57.00;;;;;;5049384;28;20033;-84
2021/09/22 00:31:40;;;;;;;3.88;3.58;;;15.50;57.00;;;;;;5049518;27;20072;-84
2021/09/22 00:34:06;;;;;;;4.38;3.83;;;15.50;57.10;;;;;;5048603;28;20033;-84
2021/09/22 00:36:32;;;;;;;5.38;4.10;;;15.50;57.80;;;;;;5049956;28;20053;-84
2021/09/22 00:38:58;;;;;;;3.40;3.20;;;15.50;57.20;;;;;;5050592;28;20029;-84
2021/09/22 00:41:24;;;;;;;3.90;3.70;;;15.40;57.30;;;;;;5051518;28;20040;-85
2021/09/22 00:43:50;;;;;;;4.32;4.03;;;15.40;57.40;;;;;;5033741;28;20029;-84
2021/09/22 00:46:16;;;;;;;4.53;4.13;;;15.30;57.40;;;;;;5049452;28;20040;-84
2021/09/22 00:48:43;;;;;;;5.72;3.72;;;15.30;57.50;;;;;;5049730;28;20025;-84
2021/09/22 00:51:09;;;;;;;3.72;3.53;;;15.30;57.60;;;;;;5048078;28;20045;-85
2021/09/22 00:53:35;;;;;;;3.60;3.40;;;15.20;57.60;;;;;;5051817;28;20391;-84
2021/09/22 00:56:05;;;;;;;3.75;3.55;;;15.20;57.70;;;;;;5048885;28;20379;-84
2021/09/22 00:58:31;;;;;;;3.40;3.30;;;15.20;57.70;;;;;;5049925;28;20029;-84
2021/09/22 01:00:57;;;;;;;4.50;4.13;;;15.20;57.70;;;;;;5050742;28;20037;-84
2021/09/22 01:03:24;;;;;;;4.00;3.80;;;15.20;57.80;;;;;;5052372;28;20495;-84
2021/09/22 01:05:51;;;;;;;4.63;4.22;;;15.20;57.90;;;;;;5053886;28;20029;-84
2021/09/22 01:08:17;;;;;;;3.85;3.65;;;15.10;57.90;;;;;;5054184;28;20032;-84
2021/09/22 01:10:44;;;;;;;4.00;3.80;;;15.10;58.00;;;;;;5037183;28;20032;-84
2021/09/22 01:13:10;;;;;;;3.80;3.60;;;15.10;58.00;;;;;;5053536;28;20056;-84
2021/09/22 01:15:38;;;;;;;3.90;3.70;;;15.00;58.10;;;;;;5053163;28;20037;-84
2021/09/22 01:18:11;;;;;;;3.65;3.45;;;15.10;58.10;;;;;;5053635;28;20036;-84
2021/09/22 01:20:38;;;;;;;3.97;3.78;;;15.10;58.20;;;;;;5054328;28;20049;-84
2021/09/22 01:23:04;;;;;;;4.65;4.22;;;15.00;58.10;;;;;;5053320;28;20052;-84
2021/09/22 01:25:30;;;;;;;4.45;4.15;;;15.00;58.20;;;;;;5052349;28;20067;-84
2021/09/22 01:27:58;;;;;;;4.18;3.97;;;15.00;58.30;;;;;;5053339;28;20479;-84
2021/09/22 01:30:24;;;;;;;4.53;4.30;;;15.00;58.30;;;;;;5053312;28;20037;-84
2021/09/22 01:32:52;;;;;;;4.97;4.43;;;15.00;58.30;;;;;;5019415;28;20041;-84
2021/09/22 01:35:19;;;;;;;4.25;4.05;;;14.90;58.40;;;;;;5053599;28;20033;-84
2021/09/22 01:37:45;;;;;;;4.32;4.10;;;14.90;58.40;;;;;;5051973;28;20394;-83
2021/09/22 01:40:11;;;;;;;4.47;4.18;;;14.90;58.50;;;;;;5053752;28;20499;-84
2021/09/22 01:42:37;;;;;;;4.47;4.22;;;14.90;58.70;;;;;;5051788;28;20029;-84
2021/09/22 01:45:14;;;;;;;4.20;4.00;;;14.80;58.70;;;;;;5052607;28;20025;-83
2021/09/22 01:47:41;;;;;;;4.65;4.35;;;14.80;58.80;;;;;;5053330;28;20033;-84
2021/09/22 01:50:15;;;;;;;4.70;4.40;;;14.80;58.80;;;;;;5052905;28;20029;-84
2021/09/22 01:52:42;;;;;;;4.80;4.50;;;14.70;58.90;;;;;;5052773;28;20367;-84
2021/09/22 01:55:08;;;;;;;6.10;4.15;;;14.70;58.90;;;;;;5051556;28;20040;-84
2021/09/22 01:57:35;;;;;;;5.00;4.60;;;14.70;59.10;;;;;;5052703;28;20039;-84
2021/09/22 02:00:01;;;;;;;4.38;4.10;;;14.60;59.00;;;;;;5051540;28;20393;-84
2021/09/22 02:02:28;;;;;;;5.03;4.72;;;14.60;59.00;;;;;;5048597;28;20029;-84
2021/09/22 02:04:54;;;;;;;4.38;4.18;;;14.60;59.00;;;;;;5046912;28;20068;-84
2021/09/22 02:07:20;;;;;;;4.68;4.35;;;14.60;59.10;;;;;;5046017;28;20033;-84
2021/09/22 02:09:47;;;;;;;4.63;4.32;;;14.60;59.10;;;;;;5049331;28;20479;-84
2021/09/22 02:12:13;;;;;;;5.28;4.93;;;14.60;59.80;;;;;;5045291;28;20407;-84
2021/09/22 02:14:39;;;;;;;4.25;4.05;;;14.50;59.30;;;;;;5037480;28;20037;-84
2021/09/22 02:17:05;;;;;;;4.55;4.32;;;14.50;59.30;;;;;;5037961;28;20166;-84
2021/09/22 02:19:31;;;;;;;4.50;4.30;;;14.40;59.30;;;;;;5042373;28;20040;-84
2021/09/22 02:21:57;;;;;;;5.07;4.68;;;14.40;59.30;;;;;;5048701;28;20412;-84
2021/09/22 02:24:23;;;;;;;4.55;4.35;;;14.40;59.40;;;;;;5038962;28;20033;-84
2021/09/22 02:26:51;;;;;;;5.03;4.60;;;14.40;59.40;;;;;;5036170;28;20491;-84
2021/09/22 02:29:20;;;;;;;5.03;4.72;;;14.50;59.50;;;;;;5037780;28;20037;-84
2021/09/22 02:31:47;;;;;;;5.00;4.70;;;14.40;59.50;;;;;;5043269;28;20059;-84
2021/09/22 02:34:13;;;;;;;5.47;5.18;;;14.40;59.60;;;;;;5045815;28;20034;-84
2021/09/22 02:36:40;;;;;;;5.65;5.35;;;14.30;59.60;;;;;;5042471;28;20055;-84
2021/09/22 02:39:06;;;;;;;6.20;5.68;;;14.30;59.60;;;;;;5050961;28;20037;-84
2021/09/22 02:41:32;;;;;;;5.38;5.07;;;14.30;59.70;;;;;;5053799;28;20487;-84
2021/09/22 02:44:00;;;;;;;6.45;6.05;;;14.30;59.80;;;;;;5050407;28;20033;-84
2021/09/22 02:46:27;;;;;;;5.50;5.20;;;14.30;59.80;;;;;;5035144;28;20060;-84
2021/09/22 02:48:54;;;;;;;5.65;5.35;;;14.20;59.90;;;;;;5050622;28;20025;-83
2021/09/22 02:51:20;;;;;;;6.88;6.43;;;14.20;60.00;;;;;;5051680;28;20034;-84
2021/09/22 02:53:46;;;;;;;8.20;7.47;;;14.20;60.00;;;;;;5053782;28;20029;-84
2021/09/22 02:56:12;;;;;;;6.30;6.00;;;14.20;60.00;;;;;;5051624;28;20056;-84
2021/09/22 02:58:38;;;;;;;6.82;6.47;;;14.10;60.10;;;;;;5051150;28;20025;-84
2021/09/22 03:01:04;;;;;;;7.38;6.97;;;14.10;60.10;;;;;;5050907;28;20048;-84
2021/09/22 03:03:31;;;;;;;6.93;6.60;;;14.20;60.10;;;;;;5051504;28;20033;-84
2021/09/22 03:05:57;;;;;;;6.97;6.00;;;14.10;60.10;;;;;;5052385;28;20036;-84
2021/09/22 03:08:23;;;;;;;6.28;5.95;;;14.10;60.10;;;;;;5051513;28;20032;-84
2021/09/22 03:10:49;;;;;;;5.95;5.65;;;14.10;60.20;;;;;;5050164;28;20021;-84
2021/09/22 03:13:15;;;;;;;6.50;6.20;;;14.10;60.20;;;;;;5051320;28;20407;-84
2021/09/22 03:15:42;;;;;;;7.97;7.57;;;14.20;60.30;;;;;;5031659;28;20471;-84
2021/09/22 03:18:08;;;;;;;8.50;7.97;;;14.20;60.30;;;;;;5051247;28;20510;-84
2021/09/22 03:20:34;;;;;;;9.98;9.48;;;14.20;60.30;;;;;;5051823;28;20033;-84
2021/09/22 03:23:00;;;;;;;9.55;9.13;;;14.10;60.40;;;;;;5049454;28;20037;-84
2021/09/22 03:25:26;;;;;;;12.48;11.77;;;14.10;60.50;;;;;;5051511;28;20399;-84
2021/09/22 03:27:52;;;;;;;11.65;10.98;;;14.10;60.70;;;;;;5066371;28;20403;-83
2021/09/22 03:30:18;;;;;;;12.40;11.80;;;14.00;60.70;;;;;;5049321;28;20029;-82
2021/09/22 03:32:44;;;;;;;13.73;13.02;;;14.00;60.90;;;;;;5053043;28;20048;-83
2021/09/22 03:35:11;;;;;;;13.00;12.32;;;13.90;60.90;;;;;;5050606;28;20052;-82
2021/09/22 03:37:37;;;;;;;11.07;10.57;;;13.90;61.00;;;;;;5049701;28;20029;-82
2021/09/22 03:40:04;;;;;;;13.48;12.52;;;13.90;61.10;;;;;;5050890;28;20036;-82
2021/09/22 03:42:30;;;;;;;11.75;11.23;;;13.90;61.20;;;;;;5050545;28;20033;-82
2021/09/22 03:44:56;;;;;;;11.85;11.25;;;13.90;61.30;;;;;;5051753;28;20029;-82
2021/09/22 03:47:22;;;;;;;13.00;11.88;;;13.80;61.40;;;;;;5051459;28;20037;-83
2021/09/22 03:49:49;;;;;;;11.80;11.05;;;13.70;61.50;;;;;;5049531;28;20487;-82
2021/09/22 03:52:15;;;;;;;11.40;10.85;;;13.70;61.60;;;;;;5047918;28;20045;-83
2021/09/22 03:54:41;;;;;;;10.20;9.70;;;13.70;61.60;;;;;;5047986;28;20395;-82
2021/09/22 03:57:07;;;;;;;9.75;9.25;;;13.70;61.60;;;;;;5050287;28;20032;-82
2021/09/22 03:59:33;;;;;;;8.88;8.48;;;13.70;61.70;;;;;;5052443;28;20021;-82
2021/09/22 04:01:59;;;;;;;9.77;9.18;;;13.70;62.00;;;;;;5049968;28;20060;-82
2021/09/22 04:04:25;;;;;;;8.00;7.60;;;13.60;61.90;;;;;;5049286;28;20029;-83
2021/09/22 04:06:51;;;;;;;7.10;6.70;;;13.60;62.10;;;;;;5066085;28;20077;-83
2021/09/22 04:09:18;;;;;;;7.78;7.38;;;13.60;62.20;;;;;;5050862;28;20033;-82
2021/09/22 04:11:44;;;;;;;8.10;7.60;;;13.60;62.20;;;;;;5046535;28;20045;-83
2021/09/22 04:14:10;;;;;;;7.38;6.97;;;13.60;62.20;;;;;;5066145;28;20420;-82
2021/09/22 04:16:36;;;;;;;6.70;6.30;;;13.60;62.20;;;;;;5048887;28;20036;-83
2021/09/22 04:19:03;;;;;;;6.30;5.75;;;13.60;62.20;;;;;;5050346;28;20043;-82
2021/09/22 04:21:29;;;;;;;6.00;5.40;;;13.70;62.30;;;;;;5050235;28;20395;-83
2021/09/22 04:23:57;;;;;;;5.35;5.05;;;13.60;62.30;;;;;;5051360;28;20048;-83
2021/09/22 04:26:23;;;;;;;6.78;6.40;;;13.60;62.30;;;;;;5050119;28;20041;-82
2021/09/22 04:28:49;;;;;;;6.93;6.35;;;13.60;62.50;;;;;;5049068;28;20037;-82
2021/09/22 04:31:15;;;;;;;6.95;6.25;;;13.60;62.50;;;;;;5048138;28;20037;-82
2021/09/22 04:33:41;;;;;;;6.47;6.15;;;13.60;62.70;;;;;;5048659;28;20068;-83
2021/09/22 04:36:08;;;;;;;5.57;5.18;;;13.60;62.70;;;;;;5052705;28;20061;-82
2021/09/22 04:38:35;;;;;;;6.95;6.40;;;13.50;62.90;;;;;;5056178;28;20044;-82
2021/09/22 04:41:01;;;;;;;6.70;6.30;;;13.50;63.10;;;;;;5054444;28;20414;-83
2021/09/22 04:43:27;;;;;;;5.25;4.95;;;13.50;63.30;;;;;;5054194;28;20033;-83
2021/09/22 04:45:53;;;;;;;4.35;3.95;;;13.50;63.30;;;;;;5053558;28;20041;-82
2021/09/22 04:48:19;;;;;;;3.80;3.60;;;13.40;63.40;;;;;;5052901;28;20033;-82
2021/09/22 04:50:45;;;;;;;6.25;5.07;;;13.40;63.70;;;;;;5056042;28;20032;-82
2021/09/22 04:53:11;;;;;;;4.97;4.68;;;13.40;63.90;;;;;;5053859;28;20045;-83
2021/09/22 04:55:37;;;;;;;4.75;4.45;;;13.30;64.00;;;;;;5053499;28;20029;-82
2021/09/22 04:58:03;;;;;;;6.10;5.47;;;13.30;64.80;;;;;;5052767;28;20037;-82
2021/09/22 05:00:29;;;;;;;5.43;5.03;;;13.30;64.00;;;;;;5053396;28;20047;-82
2021/09/22 05:02:55;;;;;;;4.90;4.50;;;13.30;63.90;;;;;;5053597;28;20029;-82
2021/09/22 05:05:22;;;;;;;4.88;4.43;;;13.40;63.80;;;;;;5054788;28;20029;-82
2021/09/22 05:07:48;;;;;;;4.13;3.92;;;13.40;63.70;;;;;;5069303;28;20036;-82
2021/09/22 05:10:14;;;;;;;4.32;4.13;;;13.50;63.60;;;;;;5050730;28;20364;-82
2021/09/22 05:12:40;;;;;;;5.40;4.97;;;13.50;63.50;;;;;;5052117;28;20044;-82
2021/09/22 05:15:06;;;;;;;29.50;5.80;;;13.50;63.60;;;;;;5053150;28;20025;-82
2021/09/22 05:17:33;;;;;;;5.30;5.03;;;13.50;63.60;;;;;;5055768;28;20037;-82
2021/09/22 05:19:59;;;;;;;5.45;5.10;;;13.50;63.60;;;;;;5053933;28;20388;-82
2021/09/22 05:22:25;;;;;;;6.57;5.97;;;13.50;63.70;;;;;;5053421;28;20029;-82
2021/09/22 05:24:51;;;;;;;5.95;5.55;;;13.50;63.80;;;;;;5053239;28;20364;-82
2021/09/22 05:27:17;;;;;;;6.03;5.43;;;13.40;63.80;;;;;;5053520;28;20029;-82
2021/09/22 05:29:44;;;;;;;5.35;5.00;;;13.40;63.80;;;;;;5054086;28;20048;-82
2021/09/22 05:32:10;;;;;;;4.32;4.13;;;13.40;63.90;;;;;;5052616;28;20049;-82
2021/09/22 05:34:36;;;;;;;4.20;4.00;;;13.30;64.00;;;;;;5052006;28;20036;-83
2021/09/22 05:37:02;;;;;;;5.15;4.75;;;13.30;64.10;;;;;;5051806;28;20383;-82
2021/09/22 05:39:28;;;;;;;6.78;4.50;;;13.20;64.20;;;;;;5052795;28;20036;-82
2021/09/22 05:41:54;;;;;;;4.63;4.38;;;13.20;64.30;;;;;;5070024;28;20041;-82
2021/09/22 05:44:20;;;;;;;4.80;4.50;;;13.20;64.40;;;;;;5054894;28;20033;-82
2021/09/22 05:46:46;;;;;;;4.95;4.75;;;13.20;64.50;;;;;;5050728;28;20052;-82
2021/09/22 05:49:12;;;;;;;4.20;3.88;;;13.10;64.60;;;;;;5051479;28;20040;-83
2021/09/22 05:51:38;;;;;;;4.15;3.85;;;13.10;64.70;;;;;;5051260;28;20037;-82
2021/09/22 05:54:04;;;;;;;4.82;4.63;;;13.00;64.80;;;;;;5051324;28;20045;-82
2021/09/22 05:56:31;;;;;;;4.70;4.43;;;13.00;64.90;;;;;;5069962;28;20044;-82
2021/09/22 05:58:57;;;;;;;4.60;4.25;;;13.00;64.90;;;;;;5052698;28;20049;-82
2021/09/22 06:01:23;;;;;;;5.50;5.03;;;13.00;65.00;;;;;;5052207;28;20033;-82
2021/09/22 06:03:49;;;;;;;6.28;4.30;;;12.90;65.00;;;;;;5052652;28;20033;-82
2021/09/22 06:06:15;;;;;;;4.47;4.20;;;13.00;65.00;;;;;;5052836;28;20034;-82
2021/09/22 06:08:41;;;;;;;4.57;4.18;;;13.00;65.00;;;;;;5052984;28;20032;-82
2021/09/22 06:11:07;;;;;;;5.20;4.13;;;12.90;64.90;;;;;;5051132;28;20522;-82
2021/09/22 06:13:33;;;;;;;4.57;4.28;;;13.00;64.90;;;;;;5052370;28;20041;-83
2021/09/22 06:15:59;;;;;;;4.00;3.70;;;13.00;64.80;;;;;;5050651;28;20033;-82
2021/09/22 06:18:26;;;;;;;4.82;4.15;;;13.10;64.90;;;;;;5051333;28;20376;-82
2021/09/22 06:20:52;;;;;;;4.38;4.07;;;13.10;64.80;;;;;;5053710;28;20029;-83
2021/09/22 06:23:18;;;;;;;6.63;4.10;;;13.10;64.80;;;;;;5052644;28;20126;-82
2021/09/22 06:25:44;;;;;;;4.47;4.10;;;13.10;64.80;;;;;;5052190;28;20036;-82
2021/09/22 06:28:10;;;;;;;5.28;3.83;;;13.10;64.80;;;;;;5050944;28;20040;-82
2021/09/22 06:30:36;;;;;;;4.47;4.18;;;13.10;64.80;;;;;;5048929;28;20388;-82
2021/09/22 06:33:02;;;;;;;5.22;4.40;;;13.20;64.90;;;;;;5052302;28;20052;-82
2021/09/22 06:35:28;;;;;;;6.00;4.47;;;13.30;64.70;;;;;;5067327;28;20483;-83
2021/09/22 06:37:54;;;;;;;4.05;3.70;;;13.50;64.40;;;;;;5051672;28;20045;-82
2021/09/22 06:40:21;;;;;;;5.00;4.25;;;13.80;63.90;;;;;;5050639;28;20041;-83
2021/09/22 06:42:48;;;;;;;4.18;3.88;;;14.00;63.40;;;;;;5050866;28;20068;-83
2021/09/22 06:45:15;;;;;;;3.78;3.58;;;14.20;63.10;;;;;;5051439;28;20033;-83
2021/09/22 06:47:41;;;;;;;3.97;3.75;;;14.30;62.90;;;;;;5052667;28;20464;-83
2021/09/22 06:50:07;;;;;;;4.00;3.80;;;14.50;62.80;;;;;;5050577;28;20037;-83
2021/09/22 06:52:35;;;;;;;5.15;4.70;;;14.60;62.60;;;;;;5051534;28;20045;-83
2021/09/22 06:55:01;;;;;;;4.50;4.20;;;14.70;62.40;;;;;;5051702;28;20033;-83
2021/09/22 06:57:27;;;;;;;6.38;4.80;;;14.90;62.30;;;;;;5049616;28;20041;-83
2021/09/22 06:59:53;;;;;;;4.40;4.10;;;15.00;62.00;;;;;;5052806;28;20033;-83
2021/09/22 07:02:19;;;;;;;4.68;4.38;;;15.20;61.80;;;;;;5051597;28;20044;-83
2021/09/22 07:04:46;;;;;;;5.47;5.07;;;15.30;61.70;;;;;;5051520;28;20403;-83
2021/09/22 07:07:12;;;;;;;5.07;4.78;;;15.40;61.50;;;;;;5049767;28;20459;-84
2021/09/22 07:09:38;;;;;;;5.00;4.70;;;15.60;61.40;;;;;;5048798;28;20040;-83
2021/09/22 07:12:05;;;;;;;4.93;4.63;;;15.80;61.10;;;;;;5051400;28;20383;-84
2021/09/22 07:14:31;;;;;;;4.95;4.65;;;16.00;60.80;;;;;;5053295;28;20040;-84
2021/09/22 07:16:57;;;;;;;7.53;5.75;;;16.10;60.60;;;;;;5050888;28;20037;-84
2021/09/22 07:19:23;;;;;;;4.80;4.40;;;16.30;60.40;;;;;;5051870;28;20410;-84
2021/09/22 07:21:49;;;;;;;5.70;5.00;;;16.40;60.30;;;;;;5049649;28;20036;-84
2021/09/22 07:24:15;;;;;;;5.45;5.00;;;16.40;60.40;;;;;;5051069;28;20411;-84
2021/09/22 07:26:41;;;;;;;5.50;5.05;;;16.40;60.60;;;;;;5053140;28;20033;-84
2021/09/22 07:29:07;;;;;;;5.38;5.07;;;16.40;60.80;;;;;;5050945;28;20033;-84
2021/09/22 07:31:34;;;;;;;5.50;5.10;;;16.40;60.90;;;;;;5032895;28;20396;-83
2021/09/22 07:34:01;;;;;;;5.30;5.00;;;16.50;60.80;;;;;;5050844;28;20056;-84
2021/09/22 07:36:27;;;;;;;6.25;5.63;;;16.60;60.60;;;;;;5049536;28;20049;-84
2021/09/22 07:38:53;;;;;;;9.43;5.70;;;16.60;60.60;;;;;;5052274;28;20032;-84
2021/09/22 07:41:19;;;;;;;5.75;5.35;;;16.60;60.70;;;;;;5051325;28;20029;-84
2021/09/22 07:43:45;;;;;;;5.50;5.10;;;16.70;60.70;;;;;;5050726;28;20040;-84
2021/09/22 07:46:11;;;;;;;6.55;5.95;;;16.80;60.50;;;;;;5048959;27;20040;-85
2021/09/22 07:48:37;;;;;;;5.95;5.47;;;16.90;60.50;;;;;;5048824;28;20036;-85
2021/09/22 07:51:04;;;;;;;5.53;5.22;;;17.00;60.40;;;;;;5050781;28;20490;-84
2021/09/22 07:53:30;;;;;;;10.30;5.43;;;17.10;60.30;;;;;;5052402;28;20041;-84
2021/09/22 07:55:56;;;;;;;5.80;5.40;;;17.20;60.10;;;;;;5050680;28;20029;-85
2021/09/22 07:58:22;;;;;;;6.32;5.93;;;17.30;60.00;;;;;;5049353;28;20040;-85
2021/09/22 08:00:48;;;;;;;5.95;5.65;;;17.40;59.90;;;;;;5050004;28;20080;-85
2021/09/22 08:03:15;;;;;;;6.13;5.72;;;17.70;59.60;;;;;;5050310;28;20029;-84
2021/09/22 08:05:41;;;;;;;5.90;5.50;;;17.90;59.30;;;;;;5052319;28;20387;-85
2021/09/22 08:08:08;;;;;;;5.55;5.13;;;18.10;59.20;;;;;;5050463;28;20060;-85
2021/09/22 08:10:34;;;;;;;4.70;4.50;;;18.30;59.10;;;;;;5048695;28;20041;-85
2021/09/22 08:13:01;;;;;;;5.10;4.80;;;18.50;58.90;;;;;;5049064;28;20052;-85
2021/09/22 08:15:27;;;;;;;5.43;5.13;;;18.60;58.70;;;;;;5048733;28;20040;-85
2021/09/22 08:17:53;;;;;;;5.05;4.65;;;18.70;58.70;;;;;;5050263;28;20041;-85
2021/09/22 08:20:19;;;;;;;5.72;5.40;;;18.60;58.70;;;;;;5050975;28;20040;-84
2021/09/22 08:22:45;;;;;;;7.63;5.50;;;18.70;58.80;;;;;;5050333;28;20025;-85
2021/09/22 08:25:11;;;;;;;8.55;6.07;;;18.80;58.70;;;;;;5048609;28;20049;-85
2021/09/22 08:27:38;;;;;;;7.07;6.68;;;18.80;58.60;;;;;;5049230;28;20503;-85
2021/09/22 08:30:04;;;;;;;5.82;5.53;;;18.90;58.60;;;;;;5049790;28;20475;-85
2021/09/22 08:32:30;;;;;;;6.65;6.15;;;19.00;58.60;;;;;;5050515;28;20392;-85
2021/09/22 08:34:57;;;;;;;7.38;6.88;;;19.10;58.40;;;;;;5050029;28;20029;-85
2021/09/22 08:37:23;;;;;;;7.43;7.03;;;19.20;58.30;;;;;;5050198;28;20029;-85
2021/09/22 08:39:49;;;;;;;5.97;5.68;;;19.30;58.30;;;;;;5050187;28;20032;-85
2021/09/22 08:42:15;;;;;;;6.97;6.57;;;19.50;58.00;;;;;;5048246;28;20049;-86
2021/09/22 08:44:41;;;;;;;6.13;5.82;;;19.70;57.80;;;;;;5051981;28;20356;-85
2021/09/22 08:47:07;;;;;;;6.85;6.30;;;19.70;57.50;;;;;;5049796;28;20044;-85
2021/09/22 08:49:35;;;;;;;6.45;5.90;;;19.80;57.70;;;;;;5065533;28;20484;-85
2021/09/22 08:52:02;;;;;;;6.38;6.05;;;19.90;57.60;;;;;;5050346;28;20056;-86
2021/09/22 08:54:29;;;;;;;6.57;6.18;;;20.10;57.30;;;;;;5050642;28;20407;-86
2021/09/22 08:56:56;;;;;;;7.72;7.32;;;20.20;57.20;;;;;;5051371;28;20021;-85
2021/09/22 08:59:22;;;;;;;7.57;7.07;;;20.30;57.00;;;;;;5067337;28;20025;-86
2021/09/22 09:02:11;;;;;;;6.90;6.40;;;20.40;56.90;;;;;;5047872;28;20029;-85
2021/09/22 09:04:38;;;;;;;6.55;6.25;;;20.60;56.80;;;;;;5048499;28;20024;-85
2021/09/22 09:07:04;;;;;;;7.22;6.82;;;20.60;56.60;;;;;;5047471;28;20037;-85
2021/09/22 09:09:38;;;;;;;7.15;6.65;;;20.70;56.50;;;;;;5050648;28;20060;-85
2021/09/22 09:12:20;;;;;;;7.63;7.22;;;20.80;56.50;;;;;;5048726;28;20025;-86
2021/09/22 09:14:53;;;;;;;6.82;6.53;;;20.80;56.50;;;;;;5047656;28;20041;-85
2021/09/22 09:17:42;;;;;;;7.78;7.28;;;21.00;56.40;;;;;;5049235;28;20040;-86
2021/09/22 09:20:14;;;;;;;6.82;6.53;;;21.10;56.20;;;;;;5048591;28;20495;-86
2021/09/22 09:22:40;;;;;;;7.93;7.32;;;21.30;56.20;;;;;;5053089;28;20055;-86
2021/09/22 09:25:07;;;;;;;7.63;7.05;;;21.30;55.90;;;;;;5052203;28;20033;-85
2021/09/22 09:27:34;;;;;;;7.40;6.90;;;21.30;55.80;;;;;;5052265;28;20491;-86
2021/09/22 09:30:15;;;;;;;6.82;6.47;;;21.40;55.90;;;;;;5052360;28;20044;-85
2021/09/22 09:32:41;;;;;;;6.82;6.53;;;21.40;55.80;;;;;;5053065;28;20029;-86
2021/09/22 09:35:11;;;;;;;7.85;7.35;;;21.50;55.80;;;;;;5051182;28;20052;-85
2021/09/22 09:37:51;;;;;;;7.10;6.80;;;21.50;55.70;;;;;;5053165;28;20028;-86
2021/09/22 09:40:20;;;;;;;7.18;6.78;;;21.70;55.60;;;;;;5051799;28;20028;-86
2021/09/22 09:42:47;;;;;;;8.07;7.57;;;21.70;55.50;;;;;;5051792;28;20017;-85
2021/09/22 09:45:13;;;;;;;7.28;6.82;;;21.70;55.40;;;;;;5050421;27;20030;-86
2021/09/22 09:47:41;;;;;;;7.60;7.10;;;21.70;55.40;;;;;;5053087;28;20025;-85
2021/09/22 09:50:21;;;;;;;7.20;6.80;;;21.80;55.40;;;;;;5053378;28;20045;-85
2021/09/22 09:53:02;;;;;;;8.15;7.55;;;21.80;55.20;;;;;;5052857;28;20025;-85
2021/09/22 09:55:28;;;;;;;7.10;6.80;;;21.80;55.20;;;;;;5051632;28;20032;-85
2021/09/22 09:57:55;;;;;;;7.93;7.50;;;21.70;55.00;;;;;;5052708;28;20033;-85
2021/09/22 10:00:42;;;;;;;8.30;7.75;;;21.80;55.60;;;;;;5050653;28;20037;-86
2021/09/22 10:03:15;;;;;;;7.55;7.15;;;21.90;54.90;;;;;;5051603;28;20040;-86
2021/09/22 10:05:41;;;;;;;7.13;6.72;;;22.00;54.60;;;;;;5070263;28;20037;-85
2021/09/22 10:08:10;;;;;;;7.97;7.30;;;22.00;54.50;;;;;;5050808;28;20039;-86
2021/09/22 10:10:36;;;;;;;8.02;7.63;;;22.00;54.50;;;;;;5052709;28;20430;-85
2021/09/22 10:13:02;;;;;;;8.80;8.30;;;22.10;54.40;;;;;;5051264;28;20055;-85
2021/09/22 10:15:29;;;;;;;8.57;8.18;;;22.30;54.40;;;;;;5050506;28;20041;-86
2021/09/22 10:17:55;;;;;;;9.43;8.82;;;22.40;54.10;;;;;;5036147;28;20025;-85
2021/09/22 10:20:21;;;;;;;8.35;7.95;;;22.50;53.60;;;;;;5068568;28;20048;-86
2021/09/22 10:22:47;;;;;;;8.50;8.10;;;22.60;53.60;;;;;;5049782;28;20028;-86
2021/09/22 10:25:15;;;;;;;8.93;8.52;;;22.60;53.50;;;;;;5050648;28;20044;-86
2021/09/22 10:27:47;;;;;;;8.63;8.23;;;22.60;53.30;;;;;;5036320;28;20025;-85
2021/09/22 10:30:15;;;;;;;8.88;8.45;;;22.50;53.20;;;;;;5051460;28;20029;-86
2021/09/22 10:32:42;;;;;;;8.52;8.13;;;22.60;53.40;;;;;;5052944;28;20029;-85
2021/09/22 10:35:26;;;;;;;8.57;8.07;;;22.70;53.30;;;;;;5050720;28;20056;-85
2021/09/22 10:38:00;;;;;;;8.35;7.90;;;22.70;53.00;;;;;;5051949;28;20075;-86
2021/09/22 10:40:38;;;;;;;7.88;7.38;;;22.70;52.80;;;;;;5036286;28;20024;-85
2021/09/22 10:43:13;;;;;;;7.88;7.47;;;22.70;52.70;;;;;;5051638;28;20037;-86
2021/09/22 10:45:40;;;;;;;7.10;6.80;;;22.80;52.50;;;;;;5050244;28;20047;-85
2021/09/22 10:48:22;;;;;;;7.68;7.28;;;22.80;52.30;;;;;;5051798;28;20033;-86
2021/09/22 10:50:51;;;;;;;7.50;7.10;;;22.70;51.80;;;;;;5048734;28;20378;-86
2021/09/22 10:53:32;;;;;;;7.10;6.80;;;22.70;51.60;;;;;;5050979;28;20052;-86
2021/09/22 10:56:20;;;;;;;7.40;7.00;;;22.60;51.60;;;;;;5051956;28;20037;-85
2021/09/22 10:58:46;;;;;;;8.07;7.57;;;22.60;51.60;;;;;;5051459;28;20044;-85
2021/09/22 11:01:32;;;;;;;7.90;7.47;;;22.70;51.20;;;;;;5049789;28;20029;-85
2021/09/22 11:04:02;;;;;;;8.05;7.65;;;22.70;51.20;;;;;;5050012;28;20471;-85
2021/09/22 11:09:10;;;;;;;7.43;7.00;;;22.70;51.00;;;;;;5052115;28;20049;-84
2021/09/22 11:11:55;;;;;;;7.20;6.90;;;22.70;51.00;;;;;;5053126;28;20025;-86
2021/09/22 11:14:27;;;;;;;7.63;7.22;;;22.70;51.00;;;;;;5053115;28;20041;-86
2021/09/22 11:16:54;;;;;;;7.35;7.00;;;22.80;50.80;;;;;;5050683;28;20075;-85
2021/09/22 11:19:21;;;;;;;7.97;7.57;;;22.90;50.70;;;;;;5051227;28;20029;-85
2021/09/22 11:21:48;;;;;;;7.60;7.28;;;22.90;50.60;;;;;;5050345;28;20037;-85
2021/09/22 11:24:15;;;;;;;7.22;6.93;;;23.00;50.60;;;;;;5051276;28;20032;-84
2021/09/22 11:26:51;;;;;;;7.75;7.35;;;23.00;50.30;;;;;;5051645;28;20375;-86
2021/09/22 11:29:30;;;;;;;7.10;6.80;;;23.10;50.30;;;;;;5048988;28;20029;-86
2021/09/22 11:31:57;;;;;;;7.25;6.78;;;23.20;50.20;;;;;;5050553;28;20379;-85
2021/09/22 11:34:27;;;;;;;7.00;6.70;;;23.20;50.00;;;;;;5051042;28;20471;-85
2021/09/22 11:37:07;;;;;;;7.63;7.22;;;23.20;49.90;;;;;;5050743;28;20048;-85
2021/09/22 11:39:33;;;;;;;7.25;6.78;;;23.20;49.60;;;;;;5048214;28;20034;-84
2021/09/22 11:41:59;;;;;;;6.93;6.53;;;23.20;49.40;;;;;;5051304;28;20024;-85
2021/09/22 11:44:30;;;;;;;6.55;6.25;;;23.20;49.20;;;;;;5050894;28;20053;-86
2021/09/22 11:47:01;;;;;;;6.63;6.32;;;23.10;49.10;;;;;;5050233;28;20041;-85
2021/09/22 11:49:37;;;;;;;6.10;5.80;;;23.10;49.30;;;;;;5050789;28;20283;-85
2021/09/22 11:52:05;;;;;;;6.95;6.35;;;23.10;49.10;;;;;;5051520;28;20052;-85
2021/09/22 11:54:34;;;;;;;6.15;5.85;;;23.10;49.60;;;;;;5049487;28;20037;-85
2021/09/22 11:57:04;;;;;;;6.80;6.45;;;23.10;48.70;;;;;;5051302;28;20048;-86
2021/09/22 11:59:34;;;;;;;6.53;6.22;;;23.20;48.70;;;;;;5049488;28;20025;-85
2021/09/22 12:02:01;;;;;;;6.53;6.22;;;23.20;48.60;;;;;;5050057;28;20037;-85
2021/09/22 12:04:32;;;;;;;7.43;7.05;;;23.20;48.60;;;;;;5050443;28;20376;-86
2021/09/22 12:06:58;;;;;;;;;;;23.20;48.40;;;;;;5034920;28;20052;-86
2021/09/22 12:09:24;;;;;;;6.55;6.25;;;23.30;48.20;;;;;;5050495;28;20393;-85
2021/09/22 12:12:16;;;;;;;7.00;6.70;;;23.30;48.10;;;;;;5050849;28;20044;-85
2021/09/22 12:14:49;;;;;;;5.22;5.03;;;23.30;48.00;;;;;;5051571;28;20049;-85
2021/09/22 12:17:18;;;;;;;7.07;6.57;;;23.40;47.80;;;;;;5049196;28;20036;-85
2021/09/22 12:19:44;;;;;;;6.85;6.55;;;23.30;47.60;;;;;;5048957;28;20183;-85
2021/09/22 12:22:11;;;;;;;5.97;5.57;;;23.30;47.50;;;;;;5047660;28;20048;-86
2021/09/22 12:24:38;;;;;;;5.93;5.63;;;23.30;47.60;;;;;;5048969;28;20518;-86
2021/09/22 12:27:07;;;;;;;6.10;5.80;;;23.30;47.50;;;;;;5049151;28;20476;-85
2021/09/22 12:29:33;;;;;;;8.48;8.07;;;23.40;47.40;;;;;;5050837;28;20036;-84
2021/09/22 12:32:06;;;;;;;7.40;7.07;;;23.50;47.30;;;;;;5033852;28;20025;-85
2021/09/22 12:34:44;;;;;;;6.65;6.35;;;23.50;47.10;;;;;;5050150;28;20041;-85
2021/09/22 12:37:22;;;;;;;6.28;5.97;;;23.50;47.00;;;;;;5049105;28;20056;-85
2021/09/22 12:39:52;;;;;;;6.40;6.05;;;23.50;47.00;;;;;;5048498;28;20021;-85
2021/09/22 12:42:18;;;;;;;6.00;5.70;;;23.50;46.90;;;;;;5065130;28;20040;-85
2021/09/22 12:45:01;;;;;;;6.40;6.05;;;23.60;46.80;;;;;;5063617;28;20101;-85
2021/09/22 12:47:29;;;;;;;6.13;5.82;;;23.70;46.80;;;;;;5047783;28;20036;-85
2021/09/22 12:50:14;;;;;;;6.18;5.88;;;23.60;46.70;;;;;;5048739;28;20036;-85